Meteo Giornale » Osservazioni meteo Stati Uniti (USA) » Great Bend
ore: 00:56 - Osservazioni Meteo Great Bend
Lat. 38° 21' N Lon. 98° 52' W Alt. 575 metri s.l.m.
28 °C
Sereno
Temp. 24 Ore
24 °C
39 °C
Sud
24 Km/h
Dew point 15 °C
Umidità 45 %
Visibilità 10 Km
Il sole sorge alle ore 07:05
Il sole tramonta alle ore 20:05
| Data e Ora | Cielo e Fenomeni | T °C | DP °C | Um. % | Pres. hPa | Vis. km | Vento km/h | |
|---|---|---|---|---|---|---|---|---|
| Oggi h: 00:56 | Sereno | 28 | 15 | 45 | 1015 | 10 | S 24 | |
| Ieri h: 23:56 | Sereno | 29 | 16 | 45 | 1014 | 10 | S/SE 22.2 | |
| Ieri h: 22:56 | Sereno | 31 | 15 | 37 | 1014 | 10 | S/SE 22.2 | |
| Ieri h: 21:56 | Sereno | 31 | 15 | 37 | 1014 | 10 | S/SE 22.2 | |
| Ieri h: 20:56 | Sereno | 32 | 14 | 33 | 1012 | 10 | SE 18.5 | |
| Ieri h: 19:56 | Sereno | 34 | 14 | 30 | 1012 | 10 | SE 16.7 | |
| Ieri h: 18:56 | Sereno | 38 | 14 | 24 | 1012 | 10 | S/SE 22.2 | |
| Ieri h: 17:56 | Sereno | 39 | 13 | 21 | 1012 | 10 | S 27.8 | |
| Ieri h: 16:56 | Sereno | 39 | 14 | 22 | 1012 | 10 | S/SO 22.2 | |
| Ieri h: 15:56 | Sereno | 39 | 14 | 22 | 1013 | 10 | S 22.2 | |
| Ieri h: 14:56 | Sereno | 39 | 14 | 22 | 1014 | 10 | S 27.8 | |
| Ieri h: 13:56 | Sereno | 38 | 16 | 27 | 1014 | 10 | S 14.8 | |
| Ieri h: 12:56 | Sereno | 36 | 16 | 30 | 1015 | 10 | S 24 | |
| Ieri h: 11:56 | Sereno | 34 | 15 | 32 | 1015 | 10 | S 31.5 | |
| Ieri h: 10:56 | Sereno | 32 | 14 | 33 | 1015 | 10 | S 33.3 | |
| Ieri h: 09:56 | Sereno | 31 | 14 | 35 | 1015 | 10 | S 27.8 | |
| Ieri h: 08:56 | Sereno | 28 | 15 | 45 | 1015 | 10 | SE 18.5 | |
| Ieri h: 07:56 | Sereno | 26 | 18 | 61 | 1015 | 10 | SE 7.4 | |
| Ieri h: 06:56 | Sereno | 24 | 17 | 64 | 1015 | 14 | NE 9.3 | |
| Ieri h: 05:56 | Sereno | 25 | 17 | 61 | 1015 | 10 | N 0 | |
| Ieri h: 04:56 | Molto Nuvoloso | 25 | 17 | 61 | 1015 | 10 | N 5.5 | |
| Ieri h: 03:56 | Sereno | 25 | 17 | 61 | 1014 | 10 | S/SE 9.3 | |
| Ieri h: 02:56 | Poco Nuvoloso | 26 | 17 | 57 | 1013 | 10 | S/SO 9.3 | |
| Ieri h: 01:56 | Sereno | 26 | 17 | 57 | 1013 | 10 | S 13 | |



